Kafr el-Dauwar, Egypt
Current Conditions -  °F | °C
As of 10:00 PM on Monday 20 Oct 2014 (Local Time) from HEAX Reporting Station
Scattered Clouds Scattered Clouds  
Wind Chill: 70°   Ceiling: Unl
Heat Index: 70°   Visibility: 6mi
Dew Point: 55°   Wind: 2mph
Humidity: 60%   Direction: 350°N
Pressure: 29.97"   Gusts: NA
Location:  31.13°N, 30.12°E
Report Text: HEAX 202000Z 35002KT 9999 SCT020 21/13 Q1015 NOSIG
Loading
Personal Weather Stations






























Interactive Weather Map
Tropical Storm Tracking
New forecast layout! Learn more

10-Day Weather Forecast

Advertisements
Track Severe Weather on mobile